createdAt,value
2023-05-20T00:00:46.590Z,0.98
2023-05-20T00:01:46.571Z,0.99
2023-05-20T00:02:46.655Z,0.97
2023-05-20T00:03:46.769Z,0.99
2023-05-20T00:04:46.593Z,0.99
2023-05-20T00:05:46.590Z,0.98
2023-05-20T00:06:46.606Z,0.97
2023-05-20T00:07:46.613Z,0.98
2023-05-20T00:08:46.600Z,0.97
2023-05-20T00:09:46.604Z,0.96
2023-05-20T00:10:46.558Z,0.97
2023-05-20T00:11:46.555Z,0.99
2023-05-20T00:12:46.570Z,0.97
2023-05-20T00:13:46.574Z,0.98
2023-05-20T00:14:46.540Z,0.98
2023-05-20T00:15:46.571Z,0.96
2023-05-20T00:16:46.628Z,0.96
2023-05-20T00:17:46.608Z,0.96
2023-05-20T00:18:46.615Z,0.97
2023-05-20T00:19:46.570Z,0.97
2023-05-20T00:20:46.593Z,0.95
2023-05-20T00:21:46.548Z,0.96
2023-05-20T00:22:46.572Z,0.96
2023-05-20T00:23:46.574Z,0.96
2023-05-20T00:24:46.552Z,0.98
2023-05-20T00:25:46.578Z,0.97
2023-05-20T00:26:46.590Z,0.95
2023-05-20T00:27:46.579Z,0.96
2023-05-20T00:28:46.571Z,0.97
2023-05-20T00:29:46.591Z,0.96
2023-05-20T00:30:46.595Z,0.96
2023-05-20T00:31:46.607Z,0.94
2023-05-20T00:32:46.589Z,0.94
2023-05-20T00:33:46.538Z,0.97
2023-05-20T00:34:46.537Z,0.95
2023-05-20T00:35:46.551Z,0.95
2023-05-20T00:36:46.502Z,0.96
2023-05-20T00:37:46.531Z,0.93
2023-05-20T00:38:46.523Z,0.95
2023-05-20T00:39:46.504Z,0.93
2023-05-20T00:40:46.528Z,0.94
2023-05-20T00:41:46.492Z,0.94
2023-05-20T00:42:46.472Z,0.96
2023-05-20T00:43:46.493Z,0.95
2023-05-20T00:44:46.523Z,0.94
2023-05-20T00:45:46.507Z,0.94
2023-05-20T00:46:46.520Z,0.93
2023-05-20T00:47:46.544Z,0.95
2023-05-20T00:48:46.476Z,0.93
2023-05-20T00:49:48.808Z,0.93
2023-05-20T00:50:46.483Z,0.95
2023-05-20T00:51:46.487Z,0.95
2023-05-20T00:52:46.455Z,0.95
2023-05-20T00:53:46.466Z,0.92
2023-05-20T00:54:46.453Z,0.94
2023-05-20T00:55:46.445Z,0.92
2023-05-20T00:56:46.425Z,0.94
2023-05-20T00:57:46.433Z,0.93
2023-05-20T00:58:46.431Z,0.92
2023-05-20T00:59:46.452Z,0.94
2023-05-20T01:00:46.402Z,0.93
2023-05-20T01:01:46.508Z,0.92
2023-05-20T01:02:46.463Z,0.93
2023-05-20T01:03:46.410Z,0.93
2023-05-20T01:04:46.390Z,0.93
2023-05-20T01:05:46.366Z,0.93
2023-05-20T01:06:46.374Z,0.92
2023-05-20T01:07:46.356Z,0.93
2023-05-20T01:08:46.380Z,0.93
2023-05-20T01:09:46.349Z,0.93
2023-05-20T01:10:46.367Z,0.92
2023-05-20T01:11:46.362Z,0.92
2023-05-20T01:12:46.340Z,0.90
2023-05-20T01:13:46.323Z,0.92
2023-05-20T01:14:46.296Z,0.93
2023-05-20T01:15:48.157Z,0.92
2023-05-20T01:16:46.306Z,0.93
2023-05-20T01:17:46.370Z,0.92
2023-05-20T01:18:46.322Z,0.94
2023-05-20T01:19:46.288Z,0.89
2023-05-20T01:20:46.273Z,0.92
2023-05-20T01:21:46.287Z,0.89
2023-05-20T01:22:46.301Z,0.90
2023-05-20T01:23:46.250Z,0.91
2023-05-20T01:24:46.268Z,0.90
2023-05-20T01:25:46.241Z,0.91
2023-05-20T01:26:46.235Z,0.91
2023-05-20T01:27:46.225Z,0.92
2023-05-20T01:28:46.216Z,0.91
2023-05-20T01:29:46.228Z,0.91
2023-05-20T01:30:46.362Z,0.91
2023-05-20T01:31:46.282Z,0.91
2023-05-20T01:32:46.195Z,0.91
2023-05-20T01:33:46.461Z,0.90
2023-05-20T01:34:46.147Z,0.91
2023-05-20T01:35:46.165Z,0.93
2023-05-20T01:36:46.141Z,0.90
2023-05-20T01:37:46.117Z,0.90
2023-05-20T01:38:46.138Z,0.90
2023-05-20T01:39:46.172Z,0.90
2023-05-20T01:40:46.134Z,0.90
2023-05-20T01:41:46.121Z,0.91
2023-05-20T01:42:46.183Z,0.90
2023-05-20T01:43:46.264Z,0.92
2023-05-20T01:44:46.305Z,0.92
2023-05-20T01:45:46.338Z,0.91
2023-05-20T01:46:46.387Z,0.91
2023-05-20T01:47:46.476Z,0.92
2023-05-20T01:48:46.504Z,0.90
2023-05-20T01:49:46.561Z,0.91
2023-05-20T01:50:46.598Z,0.91
2023-05-20T01:51:46.686Z,0.92
2023-05-20T01:52:46.733Z,0.90
2023-05-20T01:53:46.754Z,0.91
2023-05-20T01:54:46.809Z,0.90
2023-05-20T01:55:46.730Z,0.91
2023-05-20T01:56:46.734Z,0.91
2023-05-20T01:57:46.737Z,0.90
2023-05-20T01:58:46.751Z,0.91
2023-05-20T01:59:46.739Z,0.90
2023-05-20T02:00:46.795Z,0.91
2023-05-20T02:01:46.801Z,0.90
2023-05-20T02:02:46.918Z,0.91
2023-05-20T02:03:46.767Z,0.90
2023-05-20T02:04:46.794Z,0.92
2023-05-20T02:05:46.857Z,0.91
2023-05-20T02:06:46.833Z,0.90
2023-05-20T02:07:46.829Z,0.89
2023-05-20T02:08:46.822Z,0.90
2023-05-20T02:09:46.871Z,0.90
2023-05-20T02:10:46.846Z,0.89
2023-05-20T02:11:46.810Z,0.87
2023-05-20T02:12:46.832Z,0.91
2023-05-20T02:13:46.839Z,0.90
2023-05-20T02:14:46.865Z,0.89
2023-05-20T02:15:46.787Z,0.91
2023-05-20T02:16:46.840Z,0.90
2023-05-20T02:17:46.916Z,0.89
2023-05-20T02:18:46.889Z,0.90
2023-05-20T02:19:46.800Z,0.89
2023-05-20T02:20:46.800Z,0.89
2023-05-20T02:21:46.818Z,0.89
2023-05-20T02:22:46.820Z,0.89
2023-05-20T02:23:46.821Z,0.90
2023-05-20T02:24:46.752Z,0.89
2023-05-20T02:25:46.802Z,0.87
2023-05-20T02:26:46.820Z,0.87
2023-05-20T02:27:46.778Z,0.89
2023-05-20T02:28:46.827Z,0.88
2023-05-20T02:29:46.846Z,0.88
2023-05-20T02:30:46.841Z,0.87
2023-05-20T02:31:46.814Z,0.87
2023-05-20T02:32:46.836Z,0.87
2023-05-20T02:33:46.847Z,0.87
2023-05-20T02:34:46.800Z,0.86
2023-05-20T02:35:46.848Z,0.88
2023-05-20T02:36:46.822Z,0.88
2023-05-20T02:37:46.811Z,0.88
2023-05-20T02:38:46.804Z,0.86
2023-05-20T02:39:46.820Z,0.87
2023-05-20T02:40:46.805Z,0.86
2023-05-20T02:41:46.828Z,0.87
2023-05-20T02:42:46.860Z,0.87
2023-05-20T02:43:46.824Z,0.85
2023-05-20T02:44:46.861Z,0.87
2023-05-20T02:45:46.914Z,0.85
2023-05-20T02:46:46.837Z,0.85
2023-05-20T02:47:46.864Z,0.86
2023-05-20T02:48:46.849Z,0.86
2023-05-20T02:49:46.884Z,0.88
2023-05-20T02:50:46.817Z,0.86
2023-05-20T02:51:46.826Z,0.87
2023-05-20T02:52:46.826Z,0.85
2023-05-20T02:53:46.841Z,0.86
2023-05-20T02:54:46.838Z,0.85
2023-05-20T02:55:46.922Z,0.86
2023-05-20T02:56:46.799Z,0.85
2023-05-20T02:57:46.822Z,0.84
2023-05-20T02:58:46.839Z,0.85
2023-05-20T02:59:46.840Z,0.86
2023-05-20T03:00:46.797Z,0.85
2023-05-20T03:01:46.907Z,0.84
2023-05-20T03:02:46.880Z,0.85
2023-05-20T03:03:46.866Z,0.85
2023-05-20T03:04:47.008Z,0.85
2023-05-20T03:05:46.860Z,0.85
2023-05-20T03:06:46.940Z,0.85
2023-05-20T03:07:46.928Z,0.86
2023-05-20T03:08:46.862Z,0.85
2023-05-20T03:09:46.905Z,0.86
2023-05-20T03:10:46.890Z,0.86
2023-05-20T03:11:46.854Z,0.85
2023-05-20T03:12:46.889Z,0.85
2023-05-20T03:13:46.858Z,0.84
2023-05-20T03:14:46.857Z,0.84
2023-05-20T03:15:46.924Z,0.85
2023-05-20T03:16:46.905Z,0.84
2023-05-20T03:17:46.918Z,0.84
2023-05-20T03:18:46.943Z,0.83
2023-05-20T03:19:46.927Z,0.83
2023-05-20T03:20:47.002Z,0.82
2023-05-20T03:21:46.953Z,0.82
2023-05-20T03:22:46.968Z,0.84
2023-05-20T03:23:46.993Z,0.83
2023-05-20T03:24:47.004Z,0.85
2023-05-20T03:25:47.016Z,0.84
2023-05-20T03:26:46.992Z,0.82
2023-05-20T03:27:47.017Z,0.82
2023-05-20T03:28:47.035Z,0.82
2023-05-20T03:29:47.040Z,0.85
2023-05-20T03:30:47.050Z,0.84
2023-05-20T03:31:47.171Z,0.85
2023-05-20T03:32:47.270Z,0.84
2023-05-20T03:33:47.058Z,0.83
2023-05-20T03:34:47.032Z,0.84
2023-05-20T03:35:47.075Z,0.83
2023-05-20T03:36:47.103Z,0.84
2023-05-20T03:37:47.091Z,0.84
2023-05-20T03:38:47.104Z,0.82
2023-05-20T03:39:47.058Z,0.83
2023-05-20T03:40:47.073Z,0.83
2023-05-20T03:41:47.061Z,0.82
2023-05-20T03:42:47.060Z,0.83
2023-05-20T03:43:47.064Z,0.83
2023-05-20T03:44:47.079Z,0.82
2023-05-20T03:45:47.061Z,0.85
2023-05-20T03:46:47.089Z,0.82
2023-05-20T03:47:47.119Z,0.83
2023-05-20T03:48:47.013Z,0.83
2023-05-20T03:49:47.085Z,0.82
2023-05-20T03:50:47.035Z,0.82
2023-05-20T03:51:47.012Z,0.82
2023-05-20T03:52:47.037Z,0.82
2023-05-20T03:53:47.058Z,0.81
2023-05-20T03:54:47.052Z,0.83
2023-05-20T03:55:47.018Z,0.83
2023-05-20T03:56:47.087Z,0.82
2023-05-20T03:57:47.038Z,0.82
2023-05-20T03:58:46.982Z,0.82
2023-05-20T03:59:46.999Z,0.82
2023-05-20T04:00:47.101Z,0.82
2023-05-20T04:01:47.098Z,0.82
2023-05-20T04:02:47.033Z,0.83
2023-05-20T04:03:47.058Z,0.83
2023-05-20T04:04:46.968Z,0.81
2023-05-20T04:05:47.006Z,0.81
2023-05-20T04:06:46.988Z,0.81
2023-05-20T04:07:46.974Z,0.82
2023-05-20T04:08:47.011Z,0.83
2023-05-20T04:09:46.988Z,0.84
2023-05-20T04:10:46.982Z,0.82
2023-05-20T04:11:46.973Z,0.84
2023-05-20T04:12:46.968Z,0.81
2023-05-20T04:13:46.966Z,0.83
2023-05-20T04:14:46.969Z,0.82
2023-05-20T04:15:46.939Z,0.82
2023-05-20T04:16:47.013Z,0.82
2023-05-20T04:17:46.992Z,0.83
2023-05-20T04:18:46.956Z,0.81
2023-05-20T04:19:46.925Z,0.83
2023-05-20T04:20:46.922Z,0.81
2023-05-20T04:21:46.925Z,0.80
2023-05-20T04:22:46.931Z,0.81
2023-05-20T04:23:46.868Z,0.80
2023-05-20T04:24:46.898Z,0.81
2023-05-20T04:25:46.885Z,0.80
2023-05-20T04:26:46.913Z,0.82
2023-05-20T04:27:46.885Z,0.80
2023-05-20T04:28:46.878Z,0.81
2023-05-20T04:29:46.943Z,0.80
2023-05-20T04:30:46.864Z,0.83
2023-05-20T04:31:46.943Z,0.81
2023-05-20T04:32:46.911Z,0.82
2023-05-20T04:33:46.902Z,0.82
2023-05-20T04:34:46.881Z,0.83
2023-05-20T04:35:46.880Z,0.82
2023-05-20T04:36:46.858Z,0.82
2023-05-20T04:37:46.849Z,0.81
2023-05-20T04:38:46.905Z,0.82
2023-05-20T04:39:46.820Z,0.81
2023-05-20T04:40:46.837Z,0.81
2023-05-20T04:41:46.847Z,0.81
2023-05-20T04:42:46.824Z,0.82
2023-05-20T04:43:46.827Z,0.81
2023-05-20T04:44:46.838Z,0.82
2023-05-20T04:45:46.880Z,0.83
2023-05-20T04:46:46.853Z,0.83
2023-05-20T04:47:46.902Z,0.83
2023-05-20T04:48:46.863Z,0.82
2023-05-20T04:49:46.819Z,0.83
2023-05-20T04:50:46.876Z,0.82
2023-05-20T04:51:46.816Z,0.82
2023-05-20T04:52:46.828Z,0.84
2023-05-20T04:53:46.827Z,0.82
2023-05-20T04:54:46.831Z,0.83
2023-05-20T04:55:46.854Z,0.83
2023-05-20T04:56:46.826Z,0.83
2023-05-20T04:57:46.817Z,0.82
2023-05-20T04:58:46.784Z,0.82
2023-05-20T04:59:46.786Z,0.84
2023-05-20T05:00:46.803Z,0.84
2023-05-20T05:01:46.815Z,0.84
2023-05-20T05:02:46.859Z,0.84
2023-05-20T05:03:46.915Z,0.83
2023-05-20T05:04:46.803Z,0.82
2023-05-20T05:05:46.780Z,0.84
2023-05-20T05:06:46.737Z,0.83
2023-05-20T05:07:46.795Z,0.82
2023-05-20T05:08:46.794Z,0.82
2023-05-20T05:09:46.735Z,0.83
2023-05-20T05:10:46.745Z,0.83
2023-05-20T05:11:46.735Z,0.83
2023-05-20T05:12:46.782Z,0.82
2023-05-20T05:13:46.756Z,0.82
2023-05-20T05:14:46.752Z,0.81
2023-05-20T05:15:46.788Z,0.81
2023-05-20T05:16:46.756Z,0.82
2023-05-20T05:17:46.803Z,0.82
2023-05-20T05:18:46.768Z,0.81
2023-05-20T05:19:46.743Z,0.82
2023-05-20T05:20:46.781Z,0.81
2023-05-20T05:21:46.733Z,0.82
2023-05-20T05:22:46.740Z,0.81
2023-05-20T05:23:46.763Z,0.82
2023-05-20T05:24:46.731Z,0.81
2023-05-20T05:25:46.723Z,0.81
2023-05-20T05:26:46.717Z,0.80
2023-05-20T05:27:47.442Z,0.81
2023-05-20T05:28:46.729Z,0.82
2023-05-20T05:29:46.697Z,0.80
2023-05-20T05:30:46.676Z,0.81
2023-05-20T05:31:46.700Z,0.81
2023-05-20T05:32:46.759Z,0.81
2023-05-20T05:33:46.663Z,0.81
2023-05-20T05:34:46.683Z,0.81
2023-05-20T05:35:46.643Z,0.80
2023-05-20T05:36:46.681Z,0.81
2023-05-20T05:37:46.691Z,0.81
2023-05-20T05:38:46.650Z,0.81
2023-05-20T05:39:46.642Z,0.81
2023-05-20T05:40:46.639Z,0.81
2023-05-20T05:41:46.665Z,0.81
2023-05-20T05:42:46.612Z,0.81
2023-05-20T05:43:46.633Z,0.81
2023-05-20T05:44:46.583Z,0.80
2023-05-20T05:45:46.612Z,0.78
2023-05-20T05:46:46.619Z,0.80
2023-05-20T05:47:46.688Z,0.80
2023-05-20T05:48:46.615Z,0.80
2023-05-20T05:49:46.609Z,0.79
2023-05-20T05:50:46.602Z,0.81
2023-05-20T05:51:46.598Z,0.80
2023-05-20T05:52:46.617Z,0.81
2023-05-20T05:53:46.604Z,0.81
2023-05-20T05:54:46.595Z,0.80
2023-05-20T05:55:46.597Z,0.81
2023-05-20T05:56:46.609Z,0.79
2023-05-20T05:57:46.620Z,0.80
2023-05-20T05:58:46.584Z,0.81
2023-05-20T05:59:46.599Z,0.81
2023-05-20T06:00:46.652Z,0.78
2023-05-20T06:01:46.584Z,0.81
2023-05-20T06:02:46.692Z,0.80
2023-05-20T06:03:46.771Z,0.78
2023-05-20T06:04:46.658Z,0.80
2023-05-20T06:05:46.677Z,0.79
2023-05-20T06:06:46.607Z,0.79
2023-05-20T06:07:46.649Z,0.79
2023-05-20T06:08:46.612Z,0.80
2023-05-20T06:09:46.644Z,0.80
2023-05-20T06:10:46.669Z,0.81
2023-05-20T06:11:46.636Z,0.79
2023-05-20T06:12:46.670Z,0.79
2023-05-20T06:13:46.686Z,0.80
2023-05-20T06:14:46.748Z,0.80
2023-05-20T06:15:46.732Z,0.80
2023-05-20T06:16:46.774Z,0.79
2023-05-20T06:17:46.852Z,0.80
2023-05-20T06:18:46.802Z,0.81
2023-05-20T06:19:46.793Z,0.80
2023-05-20T06:20:46.845Z,0.79
2023-05-20T06:21:46.833Z,0.78
2023-05-20T06:22:46.841Z,0.80
2023-05-20T06:23:46.869Z,0.78
2023-05-20T06:24:46.905Z,0.78
2023-05-20T06:25:46.938Z,0.78
2023-05-20T06:26:46.926Z,0.78
2023-05-20T06:27:46.952Z,0.77
2023-05-20T06:28:46.925Z,0.78
2023-05-20T06:29:46.975Z,0.78
2023-05-20T06:30:47.034Z,0.80
2023-05-20T06:31:46.994Z,0.77
2023-05-20T06:32:47.026Z,0.77
2023-05-20T06:33:46.999Z,0.79
2023-05-20T06:34:46.991Z,0.77
2023-05-20T06:35:46.990Z,0.76
2023-05-20T06:36:47.003Z,0.77
2023-05-20T06:37:47.020Z,0.76
2023-05-20T06:38:47.000Z,0.76
2023-05-20T06:39:47.006Z,0.76
2023-05-20T06:40:46.990Z,0.75
2023-05-20T06:41:47.019Z,0.77
2023-05-20T06:42:46.948Z,0.75
2023-05-20T06:43:46.954Z,0.75
2023-05-20T06:44:46.966Z,0.75
2023-05-20T06:45:46.991Z,0.75
2023-05-20T06:46:47.111Z,0.75
2023-05-20T06:47:47.093Z,0.74
2023-05-20T06:48:47.009Z,0.75
2023-05-20T06:49:47.746Z,0.75
2023-05-20T06:50:46.985Z,0.76
2023-05-20T06:51:46.982Z,0.74
2023-05-20T06:52:47.002Z,0.75
2023-05-20T06:53:47.037Z,0.75
2023-05-20T06:54:47.074Z,0.74
2023-05-20T06:55:47.072Z,0.74
2023-05-20T06:56:47.125Z,0.74
2023-05-20T06:57:47.134Z,0.75
2023-05-20T06:58:47.183Z,0.74
2023-05-20T06:59:47.251Z,0.74
2023-05-20T07:00:47.259Z,0.74
2023-05-20T07:01:47.324Z,0.74
2023-05-20T07:02:47.353Z,0.75
2023-05-20T07:03:47.444Z,0.74
2023-05-20T07:04:47.431Z,0.72
2023-05-20T07:05:47.475Z,0.75
2023-05-20T07:06:47.506Z,0.75
2023-05-20T07:07:47.548Z,0.76
2023-05-20T07:08:47.630Z,0.75
2023-05-20T07:09:47.620Z,0.75
2023-05-20T07:10:47.683Z,0.74
2023-05-20T07:11:47.735Z,0.74
2023-05-20T07:12:47.754Z,0.76
2023-05-20T07:13:47.820Z,0.74
2023-05-20T07:14:47.823Z,0.73
2023-05-20T07:15:47.844Z,0.74
2023-05-20T07:16:47.868Z,0.74
2023-05-20T07:17:47.994Z,0.74
2023-05-20T07:18:47.986Z,0.75
2023-05-20T07:19:48.015Z,0.75
2023-05-20T07:20:47.964Z,0.74
2023-05-20T07:21:48.057Z,0.74
2023-05-20T07:22:48.053Z,0.74
2023-05-20T07:23:48.088Z,0.74
2023-05-20T07:24:48.132Z,0.74
2023-05-20T07:25:48.170Z,0.74
2023-05-20T07:26:48.198Z,0.73
2023-05-20T07:27:48.354Z,0.75
2023-05-20T07:28:48.277Z,0.73
2023-05-20T07:29:48.322Z,0.74
2023-05-20T07:30:48.401Z,0.75
2023-05-20T07:31:48.503Z,0.75
2023-05-20T07:32:48.517Z,0.73
2023-05-20T07:33:48.570Z,0.73
2023-05-20T07:34:48.743Z,0.73
2023-05-20T07:35:48.690Z,0.73
2023-05-20T07:36:48.774Z,0.74
2023-05-20T07:37:48.828Z,0.74
2023-05-20T07:38:56.866Z,0.73
2023-05-20T07:39:49.887Z,0.73
2023-05-20T07:40:48.858Z,0.73
2023-05-20T07:41:48.848Z,0.73
2023-05-20T07:42:48.821Z,0.72
2023-05-20T07:43:48.811Z,0.74
2023-05-20T07:44:48.801Z,0.75
2023-05-20T07:45:48.850Z,0.74
2023-05-20T07:46:48.787Z,0.74
2023-05-20T07:47:48.930Z,0.74
2023-05-20T07:48:48.957Z,0.74
2023-05-20T07:49:49.014Z,0.73
2023-05-20T07:50:49.064Z,0.74
2023-05-20T07:51:49.102Z,0.74
2023-05-20T07:53:50.196Z,0.74
2023-05-20T07:54:49.194Z,0.74
2023-05-20T07:55:49.189Z,0.74
2023-05-20T07:56:49.226Z,0.74
2023-05-20T07:57:49.186Z,0.75
2023-05-20T07:58:49.145Z,0.74
2023-05-20T07:59:49.190Z,0.73
2023-05-20T08:00:49.160Z,0.74
2023-05-20T08:01:49.233Z,0.75
2023-05-20T08:02:49.394Z,0.75
2023-05-20T08:03:49.434Z,0.75
2023-05-20T08:04:49.377Z,0.74
2023-05-20T08:05:49.449Z,0.74
2023-05-20T08:06:49.551Z,0.76
2023-05-20T08:07:49.577Z,0.74
2023-05-20T08:08:49.658Z,0.76
2023-05-20T08:09:49.719Z,0.77
2023-05-20T08:10:49.769Z,0.77
2023-05-20T08:11:49.833Z,0.77
2023-05-20T08:12:49.898Z,0.75
2023-05-20T08:13:49.930Z,0.75
2023-05-20T08:14:50.009Z,0.76
2023-05-20T08:15:50.121Z,0.75
2023-05-20T08:16:51.668Z,0.76
2023-05-20T08:17:50.162Z,0.77
2023-05-20T08:18:50.197Z,0.76
2023-05-20T08:19:50.109Z,0.76
2023-05-20T08:20:50.164Z,0.78
2023-05-20T08:21:50.097Z,0.76
2023-05-20T08:22:50.104Z,0.77
2023-05-20T08:23:50.100Z,0.77
2023-05-20T08:24:50.095Z,0.77
2023-05-20T08:25:50.072Z,0.78
2023-05-20T08:26:50.058Z,0.78
2023-05-20T08:27:50.071Z,0.77
2023-05-20T08:28:50.030Z,0.78
2023-05-20T08:29:50.053Z,0.78
2023-05-20T08:30:50.114Z,0.78
2023-05-20T08:31:50.020Z,0.79
2023-05-20T08:32:50.112Z,0.77
2023-05-20T08:33:50.051Z,0.78
2023-05-20T08:34:50.008Z,0.76
2023-05-20T08:35:50.020Z,0.78
2023-05-20T08:36:49.990Z,0.77
2023-05-20T08:37:50.010Z,0.76
2023-05-20T08:38:49.982Z,0.77
2023-05-20T08:39:50.015Z,0.76
2023-05-20T08:40:50.002Z,0.77
2023-05-20T08:41:49.987Z,0.78
2023-05-20T08:42:49.955Z,0.78
2023-05-20T08:43:50.014Z,0.79
2023-05-20T08:44:50.058Z,0.77
2023-05-20T08:45:50.106Z,0.77
2023-05-20T08:46:50.298Z,0.75
2023-05-20T08:47:50.240Z,0.78
2023-05-20T08:48:50.297Z,0.77
2023-05-20T08:49:50.314Z,0.77
2023-05-20T08:50:50.412Z,0.77
2023-05-20T08:51:50.464Z,0.76
2023-05-20T08:52:50.531Z,0.77
2023-05-20T08:53:50.600Z,0.79
2023-05-20T08:54:50.654Z,0.76
2023-05-20T08:55:50.698Z,0.79
2023-05-20T08:56:50.769Z,0.75
2023-05-20T08:57:50.817Z,0.78
2023-05-20T08:58:50.855Z,0.78
2023-05-20T08:59:50.949Z,0.78
2023-05-20T09:00:50.979Z,0.75
2023-05-20T09:01:51.115Z,0.78
2023-05-20T09:02:51.157Z,0.79
2023-05-20T09:03:51.122Z,0.78
2023-05-20T09:04:51.239Z,0.76
2023-05-20T09:05:51.289Z,0.77
2023-05-20T09:06:51.340Z,0.76
2023-05-20T09:07:51.403Z,0.77
2023-05-20T09:08:51.445Z,0.77
2023-05-20T09:09:51.546Z,0.78
2023-05-20T09:10:51.570Z,0.77
2023-05-20T09:11:51.584Z,0.77
2023-05-20T09:12:51.668Z,0.75
2023-05-20T09:13:51.707Z,0.75
2023-05-20T09:14:51.800Z,0.75
2023-05-20T09:15:51.864Z,0.74
2023-05-20T09:16:51.859Z,0.76
2023-05-20T09:17:51.956Z,0.76
2023-05-20T09:18:52.025Z,0.76
2023-05-20T09:19:51.992Z,0.75
2023-05-20T09:20:52.058Z,0.75
2023-05-20T09:21:52.074Z,0.75
2023-05-20T09:22:52.125Z,0.75
2023-05-20T09:23:52.179Z,0.74
2023-05-20T09:24:52.230Z,0.76
2023-05-20T09:25:52.260Z,0.75
2023-05-20T09:26:52.315Z,0.74
2023-05-20T09:27:52.329Z,0.74
2023-05-20T09:28:52.401Z,0.74
2023-05-20T09:29:52.447Z,0.74
2023-05-20T09:30:52.490Z,0.75
2023-05-20T09:31:52.529Z,0.76
2023-05-20T09:32:52.637Z,0.74
2023-05-20T09:33:52.606Z,0.75
2023-05-20T09:34:52.646Z,0.73
2023-05-20T09:35:52.729Z,0.74
2023-05-20T09:36:52.771Z,0.73
2023-05-20T09:37:52.813Z,0.73
2023-05-20T09:38:52.855Z,0.74
2023-05-20T09:39:52.896Z,0.74
2023-05-20T09:40:52.932Z,0.74
2023-05-20T09:41:53.017Z,0.72
2023-05-20T09:42:53.056Z,0.74
2023-05-20T09:43:53.103Z,0.75
2023-05-20T09:44:53.125Z,0.73
2023-05-20T09:45:53.252Z,0.74
2023-05-20T09:46:53.351Z,0.74
2023-05-20T09:47:53.459Z,0.73
2023-05-20T09:48:53.327Z,0.73
2023-05-20T09:49:53.363Z,0.74
2023-05-20T09:50:53.442Z,0.73
2023-05-20T09:51:53.493Z,0.73
2023-05-20T09:52:53.547Z,0.74
2023-05-20T09:53:53.589Z,0.72
2023-05-20T09:54:53.652Z,0.74
2023-05-20T09:55:53.664Z,0.73
2023-05-20T09:56:53.756Z,0.73
2023-05-20T09:57:53.750Z,0.73
2023-05-20T09:58:53.808Z,0.74
2023-05-20T09:59:53.873Z,0.73
2023-05-20T10:00:54.014Z,0.74
2023-05-20T10:01:54.092Z,0.74
2023-05-20T10:02:54.066Z,0.72
2023-05-20T10:03:54.236Z,0.73
2023-05-20T10:04:54.115Z,0.73
2023-05-20T10:05:54.166Z,0.74
2023-05-20T10:06:54.193Z,0.74
2023-05-20T10:07:54.266Z,0.74
2023-05-20T10:08:56.441Z,0.73
2023-05-20T10:09:54.293Z,0.74
2023-05-20T10:10:54.283Z,0.73
2023-05-20T10:11:54.264Z,0.74
2023-05-20T10:12:54.312Z,0.74
2023-05-20T10:13:54.254Z,0.75
2023-05-20T10:14:54.228Z,0.75
2023-05-20T10:15:54.263Z,0.73
2023-05-20T10:16:54.240Z,0.72
2023-05-20T10:17:54.253Z,0.72
2023-05-20T10:18:54.340Z,0.73
2023-05-20T10:19:54.187Z,0.73
2023-05-20T10:20:54.203Z,0.74
2023-05-20T10:21:54.221Z,0.73
2023-05-20T10:22:54.210Z,0.74
2023-05-20T10:23:54.185Z,0.74
2023-05-20T10:24:54.203Z,0.73
2023-05-20T10:25:54.210Z,0.73
2023-05-20T10:26:54.172Z,0.73
2023-05-20T10:27:54.155Z,0.73
2023-05-20T10:28:54.144Z,0.73
2023-05-20T10:29:54.160Z,0.73
2023-05-20T10:30:54.133Z,0.72
2023-05-20T10:31:54.152Z,0.71
2023-05-20T10:32:54.410Z,0.73
2023-05-20T10:33:54.128Z,0.73
2023-05-20T10:34:54.160Z,0.72
2023-05-20T10:35:54.097Z,0.72
2023-05-20T10:36:54.111Z,0.73
2023-05-20T10:37:54.090Z,0.72
2023-05-20T10:38:54.107Z,0.73
2023-05-20T10:39:54.086Z,0.71
2023-05-20T10:40:54.100Z,0.72
2023-05-20T10:41:54.088Z,0.73
2023-05-20T10:42:54.116Z,0.72
2023-05-20T10:43:54.039Z,0.71
2023-05-20T10:44:54.073Z,0.74
2023-05-20T10:45:54.025Z,0.72
2023-05-20T10:47:16.455Z,0.72
2023-05-20T10:47:55.108Z,0.72
2023-05-20T10:48:54.098Z,0.72
2023-05-20T10:49:54.020Z,0.72
2023-05-20T10:50:54.026Z,0.72
2023-05-20T10:51:54.142Z,0.72
2023-05-20T10:52:54.003Z,0.72
2023-05-20T10:53:53.989Z,0.72
2023-05-20T10:54:53.948Z,0.71
2023-05-20T10:55:53.963Z,0.72
2023-05-20T10:56:54.066Z,0.72
2023-05-20T10:57:53.950Z,0.74
2023-05-20T10:58:54.045Z,0.72
2023-05-20T10:59:54.014Z,0.72
2023-05-20T11:00:53.985Z,0.71
2023-05-20T11:01:54.002Z,0.71
2023-05-20T11:02:54.203Z,0.74
2023-05-20T11:03:54.159Z,0.72
2023-05-20T11:04:54.083Z,0.70
2023-05-20T11:05:54.130Z,0.72
2023-05-20T11:06:54.525Z,0.72
2023-05-20T11:07:54.170Z,0.73
2023-05-20T11:08:54.320Z,0.73
2023-05-20T11:09:54.266Z,0.72
2023-05-20T11:10:54.307Z,0.72
2023-05-20T11:11:54.362Z,0.71
2023-05-20T11:12:54.455Z,0.72
2023-05-20T11:13:54.415Z,0.71
2023-05-20T11:14:54.443Z,0.70
2023-05-20T11:15:54.442Z,0.71
2023-05-20T11:16:54.531Z,0.71
2023-05-20T11:17:54.559Z,0.70
2023-05-20T11:18:54.559Z,0.71
2023-05-20T11:19:54.536Z,0.72
2023-05-20T11:20:54.569Z,0.70
2023-05-20T11:21:54.590Z,0.70
2023-05-20T11:22:54.627Z,0.71
2023-05-20T11:23:54.642Z,0.71
2023-05-20T11:24:54.643Z,0.71
2023-05-20T11:25:54.654Z,0.71
2023-05-20T11:26:54.699Z,0.71
2023-05-20T11:27:54.727Z,0.71
2023-05-20T11:28:54.765Z,0.72
2023-05-20T11:29:54.758Z,0.71
2023-05-20T11:30:54.848Z,0.71
2023-05-20T11:31:54.891Z,0.69
2023-05-20T11:32:54.888Z,0.71
2023-05-20T11:33:54.891Z,0.71
2023-05-20T11:34:54.892Z,0.71
2023-05-20T11:35:54.914Z,0.71
2023-05-20T11:36:54.976Z,0.71
2023-05-20T11:37:54.978Z,0.72
2023-05-20T11:38:55.007Z,0.71
2023-05-20T11:39:55.783Z,0.71
2023-05-20T11:40:55.421Z,0.70
2023-05-20T11:41:55.057Z,0.71
2023-05-20T11:42:55.049Z,0.71
2023-05-20T11:43:55.139Z,0.72
2023-05-20T11:44:55.088Z,0.72
2023-05-20T11:45:55.194Z,0.71
2023-05-20T11:46:55.131Z,0.73
2023-05-20T11:47:55.266Z,0.72
2023-05-20T11:48:55.178Z,0.70
2023-05-20T11:49:55.209Z,0.71
2023-05-20T11:50:55.233Z,0.71
2023-05-20T11:51:55.282Z,0.71
2023-05-20T11:52:55.278Z,0.70
2023-05-20T11:53:55.278Z,0.72
2023-05-20T11:54:55.294Z,0.71
2023-05-20T11:55:55.313Z,0.71
2023-05-20T11:56:55.355Z,0.71
2023-05-20T11:57:55.359Z,0.72
2023-05-20T11:58:55.355Z,0.72
2023-05-20T11:59:55.386Z,0.71
2023-05-20T12:01:02.255Z,0.72
2023-05-20T12:01:56.401Z,0.72
2023-05-20T12:02:55.431Z,0.72
2023-05-20T12:03:55.441Z,0.72
2023-05-20T12:04:55.410Z,0.71
2023-05-20T12:05:55.362Z,0.72
2023-05-20T12:06:55.364Z,0.72
2023-05-20T12:07:56.489Z,0.72
2023-05-20T12:08:55.430Z,0.72
2023-05-20T12:09:55.362Z,0.70
2023-05-20T12:10:55.341Z,0.71
2023-05-20T12:11:55.357Z,0.70
2023-05-20T12:12:55.341Z,0.72
2023-05-20T12:13:55.323Z,0.71
2023-05-20T12:14:55.277Z,0.72
2023-05-20T12:15:55.351Z,0.72
2023-05-20T12:16:55.307Z,0.72
2023-05-20T12:17:55.430Z,0.70
2023-05-20T12:18:55.307Z,0.70
2023-05-20T12:19:55.296Z,0.73
2023-05-20T12:20:55.252Z,0.70
2023-05-20T12:21:55.264Z,0.71
2023-05-20T12:22:55.239Z,0.71
2023-05-20T12:23:55.273Z,0.72
2023-05-20T12:24:55.524Z,0.71
2023-05-20T12:25:55.228Z,0.72
2023-05-20T12:26:55.227Z,0.70
2023-05-20T12:27:55.202Z,0.71
2023-05-20T12:28:55.275Z,0.71
2023-05-20T12:29:55.218Z,0.72
2023-05-20T12:30:55.192Z,0.71
2023-05-20T12:31:55.228Z,0.70
2023-05-20T12:32:55.182Z,0.72
2023-05-20T12:33:55.182Z,0.71
2023-05-20T12:34:55.192Z,0.71
2023-05-20T12:35:55.181Z,0.71
2023-05-20T12:36:55.157Z,0.72
2023-05-20T12:37:55.170Z,0.71
2023-05-20T12:38:55.132Z,0.72
2023-05-20T12:39:55.101Z,0.71
2023-05-20T12:40:55.144Z,0.72
2023-05-20T12:41:55.131Z,0.71
2023-05-20T12:42:55.094Z,0.71
2023-05-20T12:43:55.104Z,0.71
2023-05-20T12:44:55.108Z,0.70
2023-05-20T12:45:55.122Z,0.71
2023-05-20T12:46:55.168Z,0.71
2023-05-20T12:47:55.152Z,0.71
2023-05-20T12:48:55.109Z,0.71
2023-05-20T12:49:55.149Z,0.72
2023-05-20T12:50:55.135Z,0.72
2023-05-20T12:51:55.092Z,0.71
2023-05-20T12:52:55.118Z,0.72
2023-05-20T12:53:55.101Z,0.71
2023-05-20T12:54:55.148Z,0.71
2023-05-20T12:55:55.170Z,0.72
2023-05-20T12:56:55.094Z,0.71
2023-05-20T12:57:55.137Z,0.72
2023-05-20T12:58:55.109Z,0.72
2023-05-20T12:59:55.123Z,0.70
2023-05-20T13:00:55.119Z,0.72
2023-05-20T13:01:55.183Z,0.71
2023-05-20T13:02:55.201Z,0.72
2023-05-20T13:03:55.078Z,0.70
2023-05-20T13:04:55.113Z,0.71
2023-05-20T13:05:55.046Z,0.72
2023-05-20T13:06:55.112Z,0.72
2023-05-20T13:07:55.073Z,0.72
2023-05-20T13:08:55.104Z,0.73
2023-05-20T13:09:55.077Z,0.70
2023-05-20T13:10:55.126Z,0.71
2023-05-20T13:11:55.130Z,0.72
2023-05-20T13:12:55.155Z,0.71
2023-05-20T13:13:55.172Z,0.71
2023-05-20T13:14:55.223Z,0.72
2023-05-20T13:15:55.170Z,0.71
2023-05-20T13:16:55.230Z,0.71
2023-05-20T13:17:55.191Z,0.72
2023-05-20T13:18:55.244Z,0.72
2023-05-20T13:19:55.233Z,0.71